EGSC

Cambridge Airport

Cambridge, United Kingdom
METAR EGSC 240950Z 09007KT CAVOK 02/M02 Q1023
Observed Flight Rules
Feb-24 @ 09:50 UTC (20 minutes ago) Visual Flight Rules
Wind Visibility Clouds
90° at 7 knots 10,000+ meters
  • Clear skies
Temperatures Readings
Current 2°C / 36°F
Dewpoint -2°C / 28°F
Humidity 75%
Altimeter 30.21" Hg
Pressure 1023 hPa
Elevation 15
METAR EGSC 240950Z 09007KT CAVOK 02/M02 Q1023
Observed Flight Rules
Feb-24 @ 09:50 UTC
(20 minutes ago)
VFR
Wind Visibility
90° at 7 knots 10,000+ meters
Clouds
  • Clear skies
Temperature Dewpoint
2°C / 36°F -2°C / 28°F
Humidity Altimeter Pressure
75% 30.21" Hg 1023 hPa